sensor_id;sensor_type;location;lat;lon;timestamp;P1;durP1;ratioP1;P2;durP2;ratioP2
43807;SDS011;29438;50.664;10.098;2022-07-21T00:02:20;7.38;;;4.72;;
43807;SDS011;29438;50.664;10.098;2022-07-21T00:04:46;6.55;;;4.20;;
43807;SDS011;29438;50.664;10.098;2022-07-21T00:07:11;6.63;;;4.25;;
43807;SDS011;29438;50.664;10.098;2022-07-21T00:09:37;6.05;;;4.22;;
43807;SDS011;29438;50.664;10.098;2022-07-21T00:12:03;5.85;;;4.35;;
43807;SDS011;29438;50.664;10.098;2022-07-21T00:14:29;5.43;;;4.00;;
43807;SDS011;29438;50.664;10.098;2022-07-21T00:16:55;6.35;;;4.38;;
43807;SDS011;29438;50.664;10.098;2022-07-21T00:19:20;6.20;;;3.95;;
43807;SDS011;29438;50.664;10.098;2022-07-21T00:21:46;4.90;;;3.55;;
43807;SDS011;29438;50.664;10.098;2022-07-21T00:24:11;6.20;;;4.05;;
43807;SDS011;29438;50.664;10.098;2022-07-21T00:26:37;6.05;;;4.22;;
43807;SDS011;29438;50.664;10.098;2022-07-21T00:29:02;5.45;;;4.20;;
43807;SDS011;29438;50.664;10.098;2022-07-21T00:31:28;6.05;;;4.50;;
43807;SDS011;29438;50.664;10.098;2022-07-21T00:33:53;5.78;;;4.13;;
43807;SDS011;29438;50.664;10.098;2022-07-21T00:36:19;8.15;;;4.38;;
43807;SDS011;29438;50.664;10.098;2022-07-21T00:38:45;7.00;;;4.72;;
43807;SDS011;29438;50.664;10.098;2022-07-21T00:41:11;6.53;;;4.30;;
43807;SDS011;29438;50.664;10.098;2022-07-21T00:43:37;6.75;;;4.55;;
43807;SDS011;29438;50.664;10.098;2022-07-21T00:46:02;6.43;;;4.60;;
43807;SDS011;29438;50.664;10.098;2022-07-21T00:48:28;6.53;;;4.85;;
43807;SDS011;29438;50.664;10.098;2022-07-21T00:50:53;6.47;;;4.30;;
43807;SDS011;29438;50.664;10.098;2022-07-21T00:53:19;5.45;;;4.63;;
43807;SDS011;29438;50.664;10.098;2022-07-21T00:55:45;7.03;;;4.72;;
43807;SDS011;29438;50.664;10.098;2022-07-21T00:58:11;5.75;;;4.53;;
43807;SDS011;29438;50.664;10.098;2022-07-21T01:00:37;6.00;;;4.50;;
43807;SDS011;29438;50.664;10.098;2022-07-21T01:03:04;8.73;;;4.72;;
43807;SDS011;29438;50.664;10.098;2022-07-21T01:05:30;6.80;;;4.55;;
43807;SDS011;29438;50.664;10.098;2022-07-21T01:07:55;6.43;;;4.45;;
43807;SDS011;29438;50.664;10.098;2022-07-21T01:10:27;6.53;;;4.60;;
43807;SDS011;29438;50.664;10.098;2022-07-21T01:12:53;8.52;;;4.70;;
43807;SDS011;29438;50.664;10.098;2022-07-21T01:15:19;5.93;;;4.65;;
43807;SDS011;29438;50.664;10.098;2022-07-21T01:17:45;6.07;;;4.68;;
43807;SDS011;29438;50.664;10.098;2022-07-21T01:20:15;6.75;;;4.38;;
43807;SDS011;29438;50.664;10.098;2022-07-21T01:22:43;6.93;;;4.80;;
43807;SDS011;29438;50.664;10.098;2022-07-21T01:25:10;6.20;;;4.45;;
43807;SDS011;29438;50.664;10.098;2022-07-21T01:27:36;6.60;;;4.32;;
43807;SDS011;29438;50.664;10.098;2022-07-21T01:30:03;6.05;;;3.90;;
43807;SDS011;29438;50.664;10.098;2022-07-21T01:32:32;6.13;;;3.92;;
43807;SDS011;29438;50.664;10.098;2022-07-21T01:34:59;7.05;;;4.35;;
43807;SDS011;29438;50.664;10.098;2022-07-21T01:37:27;6.53;;;4.13;;
43807;SDS011;29438;50.664;10.098;2022-07-21T01:39:53;5.13;;;3.97;;
43807;SDS011;29438;50.664;10.098;2022-07-21T01:42:37;5.38;;;4.07;;
43807;SDS011;29438;50.664;10.098;2022-07-21T01:45:03;4.97;;;3.85;;
43807;SDS011;29438;50.664;10.098;2022-07-21T01:47:30;6.90;;;4.28;;
43807;SDS011;29438;50.664;10.098;2022-07-21T01:49:55;5.80;;;4.20;;
43807;SDS011;29438;50.664;10.098;2022-07-21T01:52:21;5.22;;;4.07;;
43807;SDS011;29438;50.664;10.098;2022-07-21T01:54:47;6.22;;;4.15;;
43807;SDS011;29438;50.664;10.098;2022-07-21T01:57:12;5.00;;;3.70;;
43807;SDS011;29438;50.664;10.098;2022-07-21T01:59:38;5.28;;;3.70;;
43807;SDS011;29438;50.664;10.098;2022-07-21T02:02:04;6.28;;;4.18;;
43807;SDS011;29438;50.664;10.098;2022-07-21T02:04:29;5.28;;;4.32;;
43807;SDS011;29438;50.664;10.098;2022-07-21T02:06:55;5.07;;;4.03;;
43807;SDS011;29438;50.664;10.098;2022-07-21T02:09:20;6.43;;;4.45;;
43807;SDS011;29438;50.664;10.098;2022-07-21T02:11:46;6.15;;;4.07;;
43807;SDS011;29438;50.664;10.098;2022-07-21T02:14:11;6.10;;;4.40;;
43807;SDS011;29438;50.664;10.098;2022-07-21T02:16:37;6.20;;;4.15;;
43807;SDS011;29438;50.664;10.098;2022-07-21T02:19:03;5.78;;;4.03;;
43807;SDS011;29438;50.664;10.098;2022-07-21T02:21:28;5.05;;;3.75;;
43807;SDS011;29438;50.664;10.098;2022-07-21T02:23:54;5.85;;;4.20;;
43807;SDS011;29438;50.664;10.098;2022-07-21T02:26:20;5.88;;;3.75;;
43807;SDS011;29438;50.664;10.098;2022-07-21T02:28:46;5.82;;;4.15;;
43807;SDS011;29438;50.664;10.098;2022-07-21T02:31:11;7.90;;;4.68;;
43807;SDS011;29438;50.664;10.098;2022-07-21T02:33:37;6.68;;;4.55;;
43807;SDS011;29438;50.664;10.098;2022-07-21T02:36:02;5.97;;;4.47;;
43807;SDS011;29438;50.664;10.098;2022-07-21T02:38:28;7.97;;;5.05;;
43807;SDS011;29438;50.664;10.098;2022-07-21T02:40:54;7.72;;;5.28;;
43807;SDS011;29438;50.664;10.098;2022-07-21T02:43:19;7.22;;;5.22;;
43807;SDS011;29438;50.664;10.098;2022-07-21T02:45:45;7.07;;;5.47;;
43807;SDS011;29438;50.664;10.098;2022-07-21T02:48:11;8.48;;;6.10;;
43807;SDS011;29438;50.664;10.098;2022-07-21T02:50:39;6.80;;;5.50;;
43807;SDS011;29438;50.664;10.098;2022-07-21T02:53:07;7.93;;;5.85;;
43807;SDS011;29438;50.664;10.098;2022-07-21T02:55:35;9.90;;;6.80;;
43807;SDS011;29438;50.664;10.098;2022-07-21T02:58:18;9.82;;;6.93;;
43807;SDS011;29438;50.664;10.098;2022-07-21T03:00:49;9.48;;;6.82;;
43807;SDS011;29438;50.664;10.098;2022-07-21T03:03:24;10.68;;;6.95;;
43807;SDS011;29438;50.664;10.098;2022-07-21T03:05:51;9.52;;;7.10;;
43807;SDS011;29438;50.664;10.098;2022-07-21T03:08:17;12.00;;;7.70;;
43807;SDS011;29438;50.664;10.098;2022-07-21T03:10:43;9.95;;;7.63;;
43807;SDS011;29438;50.664;10.098;2022-07-21T03:13:09;10.52;;;7.18;;
43807;SDS011;29438;50.664;10.098;2022-07-21T03:15:35;10.65;;;8.05;;
43807;SDS011;29438;50.664;10.098;2022-07-21T03:18:01;10.85;;;7.60;;
43807;SDS011;29438;50.664;10.098;2022-07-21T03:20:27;10.25;;;8.02;;
43807;SDS011;29438;50.664;10.098;2022-07-21T03:22:54;11.90;;;7.88;;
43807;SDS011;29438;50.664;10.098;2022-07-21T03:25:20;11.93;;;8.23;;
43807;SDS011;29438;50.664;10.098;2022-07-21T03:27:46;9.88;;;7.80;;
43807;SDS011;29438;50.664;10.098;2022-07-21T03:30:13;10.13;;;7.80;;
43807;SDS011;29438;50.664;10.098;2022-07-21T03:32:39;10.60;;;8.25;;
43807;SDS011;29438;50.664;10.098;2022-07-21T03:35:06;13.15;;;9.10;;
43807;SDS011;29438;50.664;10.098;2022-07-21T03:37:39;9.95;;;7.95;;
43807;SDS011;29438;50.664;10.098;2022-07-21T03:40:06;13.90;;;8.77;;
43807;SDS011;29438;50.664;10.098;2022-07-21T03:42:32;14.05;;;9.23;;
43807;SDS011;29438;50.664;10.098;2022-07-21T03:44:57;11.70;;;9.35;;
43807;SDS011;29438;50.664;10.098;2022-07-21T03:47:23;13.65;;;9.98;;
43807;SDS011;29438;50.664;10.098;2022-07-21T03:49:48;14.27;;;9.50;;
43807;SDS011;29438;50.664;10.098;2022-07-21T03:52:14;14.88;;;9.85;;
43807;SDS011;29438;50.664;10.098;2022-07-21T03:54:39;15.82;;;10.50;;
43807;SDS011;29438;50.664;10.098;2022-07-21T03:57:05;14.85;;;10.75;;
43807;SDS011;29438;50.664;10.098;2022-07-21T03:59:30;15.38;;;11.02;;
43807;SDS011;29438;50.664;10.098;2022-07-21T04:01:56;16.85;;;11.90;;
43807;SDS011;29438;50.664;10.098;2022-07-21T04:04:21;16.08;;;10.95;;
43807;SDS011;29438;50.664;10.098;2022-07-21T04:06:47;15.82;;;11.35;;
43807;SDS011;29438;50.664;10.098;2022-07-21T04:09:12;16.17;;;11.60;;
43807;SDS011;29438;50.664;10.098;2022-07-21T04:11:38;16.02;;;11.38;;
43807;SDS011;29438;50.664;10.098;2022-07-21T04:14:03;15.10;;;11.07;;
43807;SDS011;29438;50.664;10.098;2022-07-21T04:16:29;15.15;;;11.80;;
43807;SDS011;29438;50.664;10.098;2022-07-21T04:18:54;17.15;;;12.38;;
43807;SDS011;29438;50.664;10.098;2022-07-21T04:21:20;16.70;;;11.65;;
43807;SDS011;29438;50.664;10.098;2022-07-21T04:23:45;17.90;;;10.93;;
43807;SDS011;29438;50.664;10.098;2022-07-21T04:26:11;16.02;;;11.35;;
43807;SDS011;29438;50.664;10.098;2022-07-21T04:28:36;16.95;;;11.60;;
43807;SDS011;29438;50.664;10.098;2022-07-21T04:31:02;16.02;;;11.98;;
43807;SDS011;29438;50.664;10.098;2022-07-21T04:33:27;17.25;;;11.60;;
43807;SDS011;29438;50.664;10.098;2022-07-21T04:35:53;16.73;;;10.70;;
43807;SDS011;29438;50.664;10.098;2022-07-21T04:38:18;14.45;;;10.40;;
43807;SDS011;29438;50.664;10.098;2022-07-21T04:40:44;13.27;;;9.82;;
43807;SDS011;29438;50.664;10.098;2022-07-21T04:43:09;12.70;;;10.15;;
43807;SDS011;29438;50.664;10.098;2022-07-21T04:45:35;11.52;;;9.45;;
43807;SDS011;29438;50.664;10.098;2022-07-21T04:48:00;13.32;;;9.95;;
43807;SDS011;29438;50.664;10.098;2022-07-21T04:50:27;13.20;;;10.27;;
43807;SDS011;29438;50.664;10.098;2022-07-21T04:52:58;12.90;;;10.23;;
43807;SDS011;29438;50.664;10.098;2022-07-21T04:55:24;14.20;;;9.85;;
43807;SDS011;29438;50.664;10.098;2022-07-21T04:57:51;14.38;;;10.30;;
43807;SDS011;29438;50.664;10.098;2022-07-21T05:00:18;12.90;;;9.77;;
43807;SDS011;29438;50.664;10.098;2022-07-21T05:02:45;14.15;;;10.07;;
43807;SDS011;29438;50.664;10.098;2022-07-21T05:05:13;14.27;;;10.02;;
43807;SDS011;29438;50.664;10.098;2022-07-21T05:07:38;14.73;;;10.65;;
43807;SDS011;29438;50.664;10.098;2022-07-21T05:10:08;13.32;;;10.13;;
43807;SDS011;29438;50.664;10.098;2022-07-21T05:12:35;15.90;;;11.32;;
43807;SDS011;29438;50.664;10.098;2022-07-21T05:15:02;14.65;;;10.68;;
43807;SDS011;29438;50.664;10.098;2022-07-21T05:17:29;14.27;;;10.48;;
43807;SDS011;29438;50.664;10.098;2022-07-21T05:19:55;14.82;;;10.80;;
43807;SDS011;29438;50.664;10.098;2022-07-21T05:22:20;14.07;;;10.57;;
43807;SDS011;29438;50.664;10.098;2022-07-21T05:24:46;15.80;;;11.35;;
43807;SDS011;29438;50.664;10.098;2022-07-21T05:27:11;13.95;;;10.93;;
43807;SDS011;29438;50.664;10.098;2022-07-21T05:29:37;16.75;;;11.75;;
43807;SDS011;29438;50.664;10.098;2022-07-21T05:32:02;14.40;;;11.15;;
43807;SDS011;29438;50.664;10.098;2022-07-21T05:34:28;15.50;;;11.35;;
43807;SDS011;29438;50.664;10.098;2022-07-21T05:36:54;13.95;;;11.18;;
43807;SDS011;29438;50.664;10.098;2022-07-21T05:39:20;15.05;;;10.80;;
43807;SDS011;29438;50.664;10.098;2022-07-21T05:41:45;16.85;;;11.80;;
43807;SDS011;29438;50.664;10.098;2022-07-21T05:44:11;16.23;;;11.43;;
43807;SDS011;29438;50.664;10.098;2022-07-21T05:46:36;15.75;;;12.30;;
43807;SDS011;29438;50.664;10.098;2022-07-21T05:49:02;15.35;;;11.80;;
43807;SDS011;29438;50.664;10.098;2022-07-21T05:51:28;16.88;;;12.60;;
43807;SDS011;29438;50.664;10.098;2022-07-21T05:53:53;18.15;;;12.52;;
43807;SDS011;29438;50.664;10.098;2022-07-21T05:56:19;18.85;;;13.25;;
43807;SDS011;29438;50.664;10.098;2022-07-21T05:58:45;17.90;;;13.10;;
43807;SDS011;29438;50.664;10.098;2022-07-21T06:01:10;18.05;;;13.68;;
43807;SDS011;29438;50.664;10.098;2022-07-21T06:06:06;16.63;;;12.85;;
43807;SDS011;29438;50.664;10.098;2022-07-21T06:08:32;17.48;;;12.68;;
43807;SDS011;29438;50.664;10.098;2022-07-21T06:10:58;18.15;;;13.75;;
43807;SDS011;29438;50.664;10.098;2022-07-21T06:13:24;18.00;;;12.75;;
43807;SDS011;29438;50.664;10.098;2022-07-21T06:15:49;17.27;;;13.20;;
43807;SDS011;29438;50.664;10.098;2022-07-21T06:18:15;16.77;;;12.52;;
43807;SDS011;29438;50.664;10.098;2022-07-21T06:20:41;19.25;;;13.40;;
43807;SDS011;29438;50.664;10.098;2022-07-21T06:23:07;16.70;;;12.35;;
43807;SDS011;29438;50.664;10.098;2022-07-21T06:25:32;16.58;;;12.82;;
43807;SDS011;29438;50.664;10.098;2022-07-21T06:27:58;15.32;;;11.23;;
43807;SDS011;29438;50.664;10.098;2022-07-21T06:30:24;14.73;;;11.93;;
43807;SDS011;29438;50.664;10.098;2022-07-21T06:32:49;16.83;;;11.30;;
43807;SDS011;29438;50.664;10.098;2022-07-21T06:35:15;13.93;;;10.40;;
43807;SDS011;29438;50.664;10.098;2022-07-21T06:37:44;12.90;;;9.85;;
43807;SDS011;29438;50.664;10.098;2022-07-21T06:40:10;13.25;;;9.57;;
43807;SDS011;29438;50.664;10.098;2022-07-21T06:42:37;13.00;;;8.70;;
43807;SDS011;29438;50.664;10.098;2022-07-21T06:45:03;10.40;;;8.35;;
43807;SDS011;29438;50.664;10.098;2022-07-21T06:47:29;8.48;;;6.25;;
43807;SDS011;29438;50.664;10.098;2022-07-21T06:49:55;10.23;;;7.05;;
43807;SDS011;29438;50.664;10.098;2022-07-21T06:52:20;9.25;;;7.05;;
43807;SDS011;29438;50.664;10.098;2022-07-21T06:54:46;8.93;;;6.68;;
43807;SDS011;29438;50.664;10.098;2022-07-21T06:57:11;7.95;;;6.35;;
43807;SDS011;29438;50.664;10.098;2022-07-21T06:59:38;7.53;;;5.63;;
43807;SDS011;29438;50.664;10.098;2022-07-21T07:02:04;7.38;;;5.53;;
43807;SDS011;29438;50.664;10.098;2022-07-21T07:04:29;7.50;;;6.03;;
43807;SDS011;29438;50.664;10.098;2022-07-21T07:06:55;7.00;;;5.10;;
43807;SDS011;29438;50.664;10.098;2022-07-21T07:09:20;6.13;;;5.13;;
43807;SDS011;29438;50.664;10.098;2022-07-21T07:11:48;8.40;;;5.60;;
43807;SDS011;29438;50.664;10.098;2022-07-21T07:14:15;7.53;;;5.35;;
43807;SDS011;29438;50.664;10.098;2022-07-21T07:16:41;6.57;;;5.05;;
43807;SDS011;29438;50.664;10.098;2022-07-21T07:19:06;7.30;;;5.60;;
43807;SDS011;29438;50.664;10.098;2022-07-21T07:21:32;6.00;;;4.88;;
43807;SDS011;29438;50.664;10.098;2022-07-21T07:23:58;6.93;;;4.70;;
43807;SDS011;29438;50.664;10.098;2022-07-21T07:26:23;5.55;;;4.55;;
43807;SDS011;29438;50.664;10.098;2022-07-21T07:28:49;6.47;;;4.70;;
43807;SDS011;29438;50.664;10.098;2022-07-21T07:31:14;6.07;;;4.47;;
43807;SDS011;29438;50.664;10.098;2022-07-21T07:33:40;6.97;;;4.45;;
43807;SDS011;29438;50.664;10.098;2022-07-21T07:36:05;4.88;;;3.38;;
43807;SDS011;29438;50.664;10.098;2022-07-21T07:38:33;5.00;;;3.92;;
43807;SDS011;29438;50.664;10.098;2022-07-21T07:40:58;5.72;;;4.22;;
43807;SDS011;29438;50.664;10.098;2022-07-21T07:43:24;7.05;;;4.50;;
43807;SDS011;29438;50.664;10.098;2022-07-21T07:45:50;5.95;;;4.38;;
43807;SDS011;29438;50.664;10.098;2022-07-21T07:48:15;5.32;;;4.25;;
43807;SDS011;29438;50.664;10.098;2022-07-21T07:50:40;5.35;;;4.20;;
43807;SDS011;29438;50.664;10.098;2022-07-21T07:53:06;4.65;;;4.13;;
43807;SDS011;29438;50.664;10.098;2022-07-21T07:55:32;6.28;;;4.50;;
43807;SDS011;29438;50.664;10.098;2022-07-21T07:57:57;6.05;;;4.50;;
43807;SDS011;29438;50.664;10.098;2022-07-21T08:00:23;5.32;;;4.72;;
43807;SDS011;29438;50.664;10.098;2022-07-21T08:02:49;6.63;;;5.50;;
43807;SDS011;29438;50.664;10.098;2022-07-21T08:05:14;6.90;;;5.30;;
43807;SDS011;29438;50.664;10.098;2022-07-21T08:07:40;9.80;;;8.35;;
43807;SDS011;29438;50.664;10.098;2022-07-21T08:10:09;6.28;;;5.68;;
43807;SDS011;29438;50.664;10.098;2022-07-21T08:12:37;9.75;;;8.10;;
43807;SDS011;29438;50.664;10.098;2022-07-21T08:15:03;6.60;;;4.60;;
43807;SDS011;29438;50.664;10.098;2022-07-21T08:17:29;5.30;;;4.28;;
43807;SDS011;29438;50.664;10.098;2022-07-21T08:19:55;5.13;;;4.18;;
43807;SDS011;29438;50.664;10.098;2022-07-21T08:22:20;4.60;;;3.88;;
43807;SDS011;29438;50.664;10.098;2022-07-21T08:24:46;4.30;;;3.40;;
43807;SDS011;29438;50.664;10.098;2022-07-21T08:27:11;4.25;;;3.30;;
43807;SDS011;29438;50.664;10.098;2022-07-21T08:29:37;3.63;;;2.95;;
43807;SDS011;29438;50.664;10.098;2022-07-21T08:32:03;4.07;;;3.25;;
43807;SDS011;29438;50.664;10.098;2022-07-21T08:34:28;3.47;;;3.00;;
43807;SDS011;29438;50.664;10.098;2022-07-21T08:36:54;9.45;;;6.60;;
43807;SDS011;29438;50.664;10.098;2022-07-21T08:39:20;6.43;;;4.60;;
43807;SDS011;29438;50.664;10.098;2022-07-21T08:41:45;4.07;;;3.10;;
43807;SDS011;29438;50.664;10.098;2022-07-21T08:44:11;3.95;;;2.70;;
43807;SDS011;29438;50.664;10.098;2022-07-21T08:46:37;3.80;;;3.08;;
43807;SDS011;29438;50.664;10.098;2022-07-21T08:49:05;5.05;;;3.50;;
43807;SDS011;29438;50.664;10.098;2022-07-21T08:51:32;4.05;;;3.03;;
43807;SDS011;29438;50.664;10.098;2022-07-21T08:54:05;4.82;;;3.40;;
43807;SDS011;29438;50.664;10.098;2022-07-21T08:56:50;5.22;;;3.30;;
43807;SDS011;29438;50.664;10.098;2022-07-21T08:59:16;5.88;;;3.78;;
43807;SDS011;29438;50.664;10.098;2022-07-21T09:01:42;4.95;;;3.50;;
43807;SDS011;29438;50.664;10.098;2022-07-21T09:06:54;4.25;;;3.13;;
43807;SDS011;29438;50.664;10.098;2022-07-21T09:09:25;6.20;;;3.80;;
43807;SDS011;29438;50.664;10.098;2022-07-21T09:11:51;5.13;;;3.35;;
43807;SDS011;29438;50.664;10.098;2022-07-21T09:14:22;5.35;;;3.97;;
43807;SDS011;29438;50.664;10.098;2022-07-21T09:16:50;5.93;;;3.28;;
43807;SDS011;29438;50.664;10.098;2022-07-21T09:19:22;4.47;;;3.42;;
43807;SDS011;29438;50.664;10.098;2022-07-21T09:21:49;5.05;;;3.67;;
43807;SDS011;29438;50.664;10.098;2022-07-21T09:29:39;5.25;;;3.30;;
43807;SDS011;29438;50.664;10.098;2022-07-21T09:32:19;4.47;;;2.80;;
43807;SDS011;29438;50.664;10.098;2022-07-21T09:34:51;4.65;;;2.97;;
43807;SDS011;29438;50.664;10.098;2022-07-21T09:37:40;4.28;;;2.72;;
43807;SDS011;29438;50.664;10.098;2022-07-21T09:40:07;3.78;;;3.13;;
43807;SDS011;29438;50.664;10.098;2022-07-21T09:42:35;3.53;;;2.90;;
43807;SDS011;29438;50.664;10.098;2022-07-21T09:45:07;3.72;;;3.13;;
43807;SDS011;29438;50.664;10.098;2022-07-21T09:47:34;3.95;;;2.72;;
43807;SDS011;29438;50.664;10.098;2022-07-21T09:50:04;4.70;;;2.83;;
43807;SDS011;29438;50.664;10.098;2022-07-21T09:52:32;4.18;;;2.75;;
43807;SDS011;29438;50.664;10.098;2022-07-21T09:55:01;3.95;;;2.83;;
43807;SDS011;29438;50.664;10.098;2022-07-21T09:57:31;3.97;;;2.67;;
43807;SDS011;29438;50.664;10.098;2022-07-21T09:59:57;3.92;;;2.60;;
43807;SDS011;29438;50.664;10.098;2022-07-21T10:02:27;4.57;;;2.45;;
43807;SDS011;29438;50.664;10.098;2022-07-21T10:07:29;4.85;;;2.60;;
43807;SDS011;29438;50.664;10.098;2022-07-21T10:09:56;3.88;;;2.58;;
43807;SDS011;29438;50.664;10.098;2022-07-21T10:12:22;3.55;;;2.97;;
43807;SDS011;29438;50.664;10.098;2022-07-21T10:14:49;3.15;;;2.60;;
43807;SDS011;29438;50.664;10.098;2022-07-21T10:17:16;5.72;;;2.80;;
43807;SDS011;29438;50.664;10.098;2022-07-21T10:19:45;3.50;;;2.75;;
43807;SDS011;29438;50.664;10.098;2022-07-21T10:23:06;4.50;;;3.45;;
43807;SDS011;29438;50.664;10.098;2022-07-21T10:25:28;4.03;;;3.28;;
43807;SDS011;29438;50.664;10.098;2022-07-21T10:30:39;4.60;;;3.35;;
43807;SDS011;29438;50.664;10.098;2022-07-21T10:33:07;4.40;;;3.72;;
43807;SDS011;29438;50.664;10.098;2022-07-21T10:35:33;4.97;;;3.30;;
43807;SDS011;29438;50.664;10.098;2022-07-21T10:38:00;4.20;;;3.00;;
43807;SDS011;29438;50.664;10.098;2022-07-21T10:45:35;4.65;;;3.20;;
43807;SDS011;29438;50.664;10.098;2022-07-21T10:48:05;4.22;;;3.05;;
43807;SDS011;29438;50.664;10.098;2022-07-21T10:50:33;4.40;;;3.67;;
43807;SDS011;29438;50.664;10.098;2022-07-21T10:52:59;4.50;;;3.15;;
43807;SDS011;29438;50.664;10.098;2022-07-21T10:55:30;3.75;;;2.83;;
43807;SDS011;29438;50.664;10.098;2022-07-21T10:58:16;3.22;;;2.63;;
43807;SDS011;29438;50.664;10.098;2022-07-21T11:00:52;5.55;;;2.90;;
43807;SDS011;29438;50.664;10.098;2022-07-21T11:03:22;4.55;;;3.28;;
43807;SDS011;29438;50.664;10.098;2022-07-21T11:08:38;3.53;;;2.97;;
43807;SDS011;29438;50.664;10.098;2022-07-21T11:22:10;3.92;;;2.72;;
43807;SDS011;29438;50.664;10.098;2022-07-21T11:24:46;3.35;;;2.38;;
43807;SDS011;29438;50.664;10.098;2022-07-21T11:27:15;3.25;;;2.83;;
43807;SDS011;29438;50.664;10.098;2022-07-21T11:29:44;3.08;;;2.55;;
43807;SDS011;29438;50.664;10.098;2022-07-21T11:32:11;3.42;;;2.45;;
43807;SDS011;29438;50.664;10.098;2022-07-21T11:37:18;3.47;;;2.58;;
43807;SDS011;29438;50.664;10.098;2022-07-21T11:39:52;3.08;;;2.17;;
43807;SDS011;29438;50.664;10.098;2022-07-21T11:42:17;3.88;;;3.15;;
43807;SDS011;29438;50.664;10.098;2022-07-21T11:44:43;3.65;;;2.47;;
43807;SDS011;29438;50.664;10.098;2022-07-21T11:47:10;4.75;;;4.10;;
43807;SDS011;29438;50.664;10.098;2022-07-21T11:49:37;4.13;;;2.90;;
43807;SDS011;29438;50.664;10.098;2022-07-21T11:52:04;2.97;;;2.30;;
43807;SDS011;29438;50.664;10.098;2022-07-21T11:54:45;4.70;;;2.78;;
43807;SDS011;29438;50.664;10.098;2022-07-21T11:57:13;3.85;;;3.00;;
43807;SDS011;29438;50.664;10.098;2022-07-21T11:59:40;4.57;;;2.80;;
43807;SDS011;29438;50.664;10.098;2022-07-21T12:02:07;2.78;;;2.10;;
43807;SDS011;29438;50.664;10.098;2022-07-21T12:04:38;4.85;;;1.80;;
43807;SDS011;29438;50.664;10.098;2022-07-21T12:07:12;3.85;;;2.20;;
43807;SDS011;29438;50.664;10.098;2022-07-21T12:09:42;3.17;;;2.15;;
43807;SDS011;29438;50.664;10.098;2022-07-21T12:12:09;3.20;;;2.15;;
43807;SDS011;29438;50.664;10.098;2022-07-21T12:14:53;3.88;;;3.08;;
43807;SDS011;29438;50.664;10.098;2022-07-21T12:17:33;4.00;;;2.92;;
43807;SDS011;29438;50.664;10.098;2022-07-21T12:20:00;5.30;;;3.80;;
43807;SDS011;29438;50.664;10.098;2022-07-21T12:23:00;5.07;;;3.22;;
43807;SDS011;29438;50.664;10.098;2022-07-21T12:25:29;3.13;;;2.30;;
43807;SDS011;29438;50.664;10.098;2022-07-21T12:27:57;3.75;;;2.60;;
43807;SDS011;29438;50.664;10.098;2022-07-21T12:30:30;6.63;;;2.70;;
43807;SDS011;29438;50.664;10.098;2022-07-21T12:35:29;3.15;;;2.58;;
43807;SDS011;29438;50.664;10.098;2022-07-21T12:38:00;3.75;;;2.55;;
43807;SDS011;29438;50.664;10.098;2022-07-21T12:40:29;4.20;;;2.57;;
43807;SDS011;29438;50.664;10.098;2022-07-21T12:43:11;4.78;;;2.95;;
43807;SDS011;29438;50.664;10.098;2022-07-21T12:45:46;4.97;;;2.70;;
43807;SDS011;29438;50.664;10.098;2022-07-21T12:48:32;4.10;;;2.50;;
43807;SDS011;29438;50.664;10.098;2022-07-21T12:53:29;4.43;;;2.75;;
43807;SDS011;29438;50.664;10.098;2022-07-21T12:55:55;2.90;;;2.38;;
43807;SDS011;29438;50.664;10.098;2022-07-21T12:58:21;3.42;;;2.47;;
43807;SDS011;29438;50.664;10.098;2022-07-21T13:00:47;3.20;;;2.28;;
43807;SDS011;29438;50.664;10.098;2022-07-21T13:03:12;3.45;;;2.65;;
43807;SDS011;29438;50.664;10.098;2022-07-21T13:05:39;2.88;;;2.40;;
43807;SDS011;29438;50.664;10.098;2022-07-21T13:08:04;4.00;;;2.15;;
43807;SDS011;29438;50.664;10.098;2022-07-21T13:10:30;2.85;;;2.05;;
43807;SDS011;29438;50.664;10.098;2022-07-21T13:12:56;2.92;;;2.00;;
43807;SDS011;29438;50.664;10.098;2022-07-21T13:15:21;3.80;;;2.00;;
43807;SDS011;29438;50.664;10.098;2022-07-21T13:17:47;3.22;;;2.03;;
43807;SDS011;29438;50.664;10.098;2022-07-21T13:20:13;2.75;;;1.80;;
43807;SDS011;29438;50.664;10.098;2022-07-21T13:22:39;4.07;;;2.25;;
43807;SDS011;29438;50.664;10.098;2022-07-21T13:25:06;2.72;;;2.10;;
43807;SDS011;29438;50.664;10.098;2022-07-21T13:27:32;3.33;;;2.03;;
43807;SDS011;29438;50.664;10.098;2022-07-21T13:29:59;3.70;;;2.15;;
43807;SDS011;29438;50.664;10.098;2022-07-21T13:32:25;3.45;;;2.10;;
43807;SDS011;29438;50.664;10.098;2022-07-21T13:34:50;3.58;;;2.15;;
43807;SDS011;29438;50.664;10.098;2022-07-21T13:37:16;3.58;;;2.10;;
43807;SDS011;29438;50.664;10.098;2022-07-21T13:39:41;3.58;;;2.30;;
43807;SDS011;29438;50.664;10.098;2022-07-21T13:42:07;2.78;;;2.10;;
43807;SDS011;29438;50.664;10.098;2022-07-21T13:44:35;3.72;;;2.55;;
43807;SDS011;29438;50.664;10.098;2022-07-21T13:47:01;3.45;;;2.50;;
43807;SDS011;29438;50.664;10.098;2022-07-21T13:49:27;4.32;;;3.03;;
43807;SDS011;29438;50.664;10.098;2022-07-21T13:51:53;4.55;;;2.90;;
43807;SDS011;29438;50.664;10.098;2022-07-21T13:54:18;4.05;;;2.08;;
43807;SDS011;29438;50.664;10.098;2022-07-21T13:56:45;2.40;;;1.90;;
43807;SDS011;29438;50.664;10.098;2022-07-21T13:59:10;3.38;;;2.20;;
43807;SDS011;29438;50.664;10.098;2022-07-21T14:01:36;2.65;;;1.90;;
43807;SDS011;29438;50.664;10.098;2022-07-21T14:04:01;3.30;;;2.13;;
43807;SDS011;29438;50.664;10.098;2022-07-21T14:06:27;3.03;;;2.20;;
43807;SDS011;29438;50.664;10.098;2022-07-21T14:08:52;3.47;;;2.45;;
43807;SDS011;29438;50.664;10.098;2022-07-21T14:11:18;3.80;;;2.20;;
43807;SDS011;29438;50.664;10.098;2022-07-21T14:13:44;4.90;;;3.13;;
43807;SDS011;29438;50.664;10.098;2022-07-21T14:16:10;2.97;;;2.22;;
43807;SDS011;29438;50.664;10.098;2022-07-21T14:18:36;2.72;;;2.05;;
43807;SDS011;29438;50.664;10.098;2022-07-21T14:21:01;2.78;;;2.17;;
43807;SDS011;29438;50.664;10.098;2022-07-21T14:23:27;3.40;;;2.20;;
43807;SDS011;29438;50.664;10.098;2022-07-21T14:25:53;2.97;;;1.90;;
43807;SDS011;29438;50.664;10.098;2022-07-21T14:28:19;2.90;;;2.00;;
43807;SDS011;29438;50.664;10.098;2022-07-21T14:30:45;3.08;;;2.08;;
43807;SDS011;29438;50.664;10.098;2022-07-21T14:33:11;3.05;;;1.83;;
43807;SDS011;29438;50.664;10.098;2022-07-21T14:35:37;3.17;;;1.90;;
43807;SDS011;29438;50.664;10.098;2022-07-21T14:38:02;3.15;;;1.90;;
43807;SDS011;29438;50.664;10.098;2022-07-21T14:40:28;3.13;;;2.10;;
43807;SDS011;29438;50.664;10.098;2022-07-21T14:42:55;2.80;;;2.15;;
43807;SDS011;29438;50.664;10.098;2022-07-21T14:45:22;3.20;;;2.60;;
43807;SDS011;29438;50.664;10.098;2022-07-21T14:47:49;5.28;;;2.40;;
43807;SDS011;29438;50.664;10.098;2022-07-21T14:50:16;5.47;;;2.40;;
43807;SDS011;29438;50.664;10.098;2022-07-21T14:52:42;3.20;;;2.60;;
43807;SDS011;29438;50.664;10.098;2022-07-21T14:55:08;3.35;;;2.30;;
43807;SDS011;29438;50.664;10.098;2022-07-21T14:57:34;5.20;;;2.58;;
43807;SDS011;29438;50.664;10.098;2022-07-21T15:00:00;4.07;;;2.65;;
43807;SDS011;29438;50.664;10.098;2022-07-21T15:02:28;3.92;;;2.47;;
43807;SDS011;29438;50.664;10.098;2022-07-21T15:04:54;4.70;;;2.72;;
43807;SDS011;29438;50.664;10.098;2022-07-21T15:07:19;3.90;;;2.38;;
43807;SDS011;29438;50.664;10.098;2022-07-21T15:09:45;3.33;;;2.60;;
43807;SDS011;29438;50.664;10.098;2022-07-21T15:12:10;4.93;;;2.75;;